Time;durP1;ratioP1;P1;durP2;ratioP2;P2;SDS_P1;SDS_P2;PMS_P1;PMS_P2;Temp;Humidity;BMP_temperature;BMP_pressure;BME280_temperature;BME280_humidity;BME280_pressure;Samples;Min_cycle;Max_cycle;Signal;HPM_P1;HPM_P2
2021/11/29 00:00:21;;;;;;;21.37;19.07;;;2.00;99.90;;;2.81;98.83;96272.78;5210845;28;20226;-77
2021/11/29 00:02:59;;;;;;;20.80;18.83;;;1.90;99.90;;;2.78;98.06;96270.06;5196068;28;20212;-77
2021/11/29 00:05:33;;;;;;;24.13;21.67;;;1.90;99.90;;;2.76;98.21;96268.22;5203259;28;20280;-76
2021/11/29 00:08:07;;;;;;;24.13;21.63;;;1.90;99.90;;;2.65;98.14;96283.56;5206230;28;20314;-77
2021/11/29 00:10:41;;;;;;;23.87;21.57;;;1.90;99.90;;;2.71;98.27;96286.47;5202398;28;20200;-77
2021/11/29 00:13:14;;;;;;;22.43;20.23;;;1.90;99.90;;;2.71;98.19;96280.53;5208376;28;20308;-77
2021/11/29 00:15:48;;;;;;;21.43;19.40;;;1.90;99.90;;;2.71;99.47;96281.41;5204272;28;20220;-77
2021/11/29 00:18:21;;;;;;;20.60;18.60;;;1.90;99.90;;;2.73;98.98;96288.22;5202775;28;20204;-77
2021/11/29 00:20:54;;;;;;;20.67;18.67;;;2.00;99.90;;;2.78;98.92;96289.38;5210470;28;20312;-78
2021/11/29 00:23:29;;;;;;;21.33;19.23;;;1.90;99.90;;;2.80;98.49;96287.81;5208969;28;20220;-78
2021/11/29 00:26:02;;;;;;;21.53;19.33;;;2.00;99.90;;;2.76;98.28;96288.41;5208464;28;20307;-77
2021/11/29 00:28:35;;;;;;;23.57;21.07;;;2.00;99.90;;;2.73;98.97;96300.84;5204917;28;20214;-77
2021/11/29 00:31:09;;;;;;;21.80;19.70;;;2.00;99.90;;;2.71;98.96;96299.06;5202000;28;20193;-78
2021/11/29 00:33:42;;;;;;;20.13;18.30;;;2.00;99.90;;;2.78;98.30;96292.78;5202193;28;20221;-77
2021/11/29 00:36:16;;;;;;;21.17;18.90;;;2.00;99.90;;;2.83;98.80;96298.97;5204296;28;20671;-78
2021/11/29 00:38:51;;;;;;;20.07;18.10;;;2.00;99.90;;;2.84;98.24;96292.28;5204507;28;20953;-78
2021/11/29 00:41:24;;;;;;;19.67;17.67;;;1.90;99.90;;;2.86;97.96;96301.69;5213399;28;20709;-77
2021/11/29 00:43:57;;;;;;;20.97;18.90;;;1.90;99.90;;;2.85;97.81;96299.06;5201017;28;20217;-77
2021/11/29 00:46:30;;;;;;;20.13;18.13;;;1.90;99.90;;;2.82;98.81;96298.88;5204267;28;20285;-77
2021/11/29 00:49:04;;;;;;;20.30;18.20;;;2.00;99.90;;;2.81;98.99;96303.03;5199878;28;20708;-79
2021/11/29 00:51:37;;;;;;;20.33;18.23;;;2.00;99.90;;;2.77;98.87;96308.66;5212400;28;20287;-79
2021/11/29 00:54:11;;;;;;;22.90;19.40;;;2.00;99.90;;;2.76;98.86;96311.09;5205187;28;20236;-78
2021/11/29 00:56:44;;;;;;;20.80;18.73;;;2.00;99.90;;;2.69;98.18;96310.75;5193946;28;20245;-80
2021/11/29 00:59:17;;;;;;;21.43;19.20;;;1.90;99.90;;;2.63;98.72;96315.41;5205264;28;20200;-80
2021/11/29 01:01:51;;;;;;;21.33;19.27;;;1.80;99.90;;;2.55;98.51;96315.69;5216547;28;20230;-80
2021/11/29 01:04:25;;;;;;;22.07;19.77;;;1.80;99.90;;;2.41;97.66;96312.31;5205521;28;20681;-80
2021/11/29 01:06:58;;;;;;;22.37;20.00;;;1.70;99.90;;;2.31;98.38;96322.59;5207351;28;20666;-80
2021/11/29 01:09:32;;;;;;;21.33;18.83;;;1.60;99.90;;;2.27;99.21;96320.66;5225601;28;20261;-78
2021/11/29 01:12:07;;;;;;;21.47;19.37;;;1.60;99.90;;;2.26;99.46;96324.81;5214505;28;20620;-79
2021/11/29 01:14:40;;;;;;;22.93;20.60;;;1.60;99.90;;;2.19;100.00;96323.56;5206261;28;20304;-79
2021/11/29 01:17:13;;;;;;;21.80;19.60;;;1.50;99.90;;;2.19;99.86;96326.06;5214351;28;20209;-80
2021/11/29 01:19:46;;;;;;;23.27;20.40;;;1.60;99.90;;;2.12;100.00;96331.50;5211376;28;20296;-79
2021/11/29 01:22:19;;;;;;;22.53;19.93;;;1.50;99.90;;;2.06;100.00;96331.13;5211588;28;20301;-80
2021/11/29 01:24:54;;;;;;;22.37;19.43;;;1.50;99.90;;;2.08;100.00;96341.28;5213670;28;20308;-79
2021/11/29 01:27:27;;;;;;;24.10;19.93;;;1.50;99.90;;;2.05;100.00;96346.13;5221070;28;20199;-79
2021/11/29 01:30:00;;;;;;;21.37;19.07;;;1.40;99.90;;;2.00;100.00;96348.34;5223997;28;20235;-80
2021/11/29 01:32:34;;;;;;;22.57;20.17;;;1.40;99.90;;;2.02;100.00;96349.31;5212861;28;20190;-80
2021/11/29 01:35:08;;;;;;;22.93;20.53;;;1.40;99.90;;;2.08;100.00;96349.72;5217008;28;20340;-79
2021/11/29 01:37:41;;;;;;;20.73;18.53;;;1.40;99.90;;;2.15;100.00;96344.31;5218157;28;20202;-79
2021/11/29 01:40:16;;;;;;;21.60;19.10;;;1.40;99.90;;;2.19;100.00;96347.88;5204528;28;20198;-79
2021/11/29 01:42:58;;;;;;;21.90;19.70;;;1.30;99.90;;;2.17;100.00;96350.28;5213339;28;20296;-79
2021/11/29 01:45:35;;;;;;;22.00;19.67;;;1.30;99.90;;;2.16;100.00;96341.00;5216495;28;20277;-78
2021/11/29 01:48:10;;;;;;;20.50;18.40;;;1.30;99.90;;;2.13;100.00;96348.38;5215661;28;20198;-78
2021/11/29 01:50:47;;;;;;;21.63;19.00;;;1.30;99.90;;;2.05;100.00;96359.59;5217734;28;20412;-79
2021/11/29 01:53:24;;;;;;;21.10;18.47;;;1.20;99.90;;;1.98;100.00;96362.50;5209430;28;20248;-79
2021/11/29 01:55:59;;;;;;;21.43;18.27;;;1.20;99.90;;;2.02;100.00;96362.78;5207796;28;20297;-78
2021/11/29 01:58:36;;;;;;;19.00;17.00;;;1.30;99.90;;;2.06;100.00;96368.91;5208541;28;20285;-78
2021/11/29 02:01:14;;;;;;;20.43;18.33;;;1.30;99.90;;;2.15;100.00;96361.06;5208717;28;20285;-79
2021/11/29 02:03:51;;;;;;;20.93;18.20;;;1.30;99.90;;;2.19;100.00;96368.06;5211318;28;20229;-78
2021/11/29 02:06:25;;;;;;;20.63;18.53;;;1.30;99.90;;;2.05;100.00;96363.75;5212842;28;20283;-78
2021/11/29 02:08:59;;;;;;;20.57;18.53;;;1.20;99.90;;;2.05;100.00;96367.16;5219496;28;20216;-78
2021/11/29 02:11:35;;;;;;;19.77;17.73;;;1.20;99.90;;;2.09;100.00;96365.69;5211303;28;20619;-78
2021/11/29 02:14:09;;;;;;;19.83;17.73;;;1.30;99.90;;;2.12;100.00;96370.94;5207568;28;20305;-78
2021/11/29 02:16:42;;;;;;;18.63;16.73;;;1.30;99.90;;;2.10;100.00;96373.38;5224891;28;20200;-78
2021/11/29 02:19:16;;;;;;;20.37;18.33;;;1.20;99.90;;;2.07;100.00;96373.16;5208834;28;20212;-78
2021/11/29 02:21:51;;;;;;;20.57;18.27;;;1.30;99.90;;;2.07;100.00;96383.25;5216194;28;20226;-78
2021/11/29 02:24:24;;;;;;;20.83;18.03;;;1.30;99.90;;;2.06;100.00;96384.03;5208979;28;20276;-78
2021/11/29 02:26:57;;;;;;;21.20;18.90;;;1.20;99.90;;;2.01;100.00;96403.88;5198712;28;20213;-78
2021/11/29 02:29:30;;;;;;;20.77;18.13;;;1.20;99.90;;;1.96;100.00;96404.34;5207355;28;20194;-78
2021/11/29 02:32:03;;;;;;;19.90;17.80;;;1.20;99.90;;;2.05;100.00;96409.13;5207167;28;20198;-78
2021/11/29 02:34:37;;;;;;;19.63;17.47;;;1.20;99.90;;;2.08;100.00;96407.66;5207016;28;20313;-78
2021/11/29 02:37:11;;;;;;;20.70;18.23;;;1.30;99.90;;;2.12;100.00;96407.09;5214187;28;20359;-78
2021/11/29 02:39:45;;;;;;;19.80;17.77;;;1.30;99.90;;;2.16;100.00;96404.00;5211605;28;20189;-79
2021/11/29 02:42:18;;;;;;;20.67;18.47;;;1.30;99.90;;;2.19;100.00;96415.94;5207674;28;20312;-78
2021/11/29 02:44:51;;;;;;;19.40;17.33;;;1.30;99.90;;;2.22;100.00;96414.47;5209982;28;20309;-78
2021/11/29 02:47:24;;;;;;;20.97;17.97;;;1.30;99.90;;;2.15;100.00;96419.91;5221730;28;20205;-78
2021/11/29 02:49:57;;;;;;;19.57;17.57;;;1.30;99.90;;;2.18;100.00;96412.53;5207404;28;20768;-77
2021/11/29 02:52:32;;;;;;;20.97;18.77;;;1.30;99.90;;;2.19;100.00;96423.50;5205551;28;20190;-78
2021/11/29 02:55:08;;;;;;;21.37;19.17;;;1.30;99.90;;;2.09;100.00;96434.63;5219304;28;20243;-77
2021/11/29 02:57:41;;;;;;;20.87;18.70;;;1.30;99.90;;;2.11;100.00;96438.09;5205480;28;20201;-78
2021/11/29 03:00:15;;;;;;;21.67;19.20;;;1.30;99.90;;;2.14;100.00;96438.31;5207096;28;20574;-78
2021/11/29 03:03:04;;;;;;;25.33;20.73;;;1.30;99.90;;;2.28;100.00;96431.66;5213227;28;20218;-78
2021/11/29 03:05:37;;;;;;;25.17;21.10;;;1.30;99.90;;;2.21;100.00;96443.00;5203962;28;20218;-78
2021/11/29 03:08:12;;;;;;;22.13;19.53;;;1.30;99.90;;;2.20;100.00;96446.28;5220508;28;20668;-78
2021/11/29 03:10:47;;;;;;;23.63;19.97;;;1.30;99.90;;;2.21;100.00;96449.69;5210897;28;20570;-77
2021/11/29 03:13:20;;;;;;;23.83;19.83;;;1.40;99.90;;;2.28;100.00;96448.44;5210283;28;20217;-78
2021/11/29 03:15:53;;;;;;;24.23;20.10;;;1.40;99.90;;;2.31;100.00;96448.63;5206130;28;20664;-77
2021/11/29 03:18:31;;;;;;;24.53;20.47;;;1.30;99.90;;;2.29;100.00;96455.19;5207876;28;20208;-78
2021/11/29 03:21:05;;;;;;;27.90;22.80;;;1.40;99.90;;;2.32;100.00;96461.34;5208078;28;20305;-77
2021/11/29 03:23:39;;;;;;;26.50;22.63;;;1.40;99.90;;;2.30;100.00;96462.88;5214424;28;20324;-77
2021/11/29 03:26:18;;;;;;;26.10;21.97;;;1.40;99.90;;;2.25;100.00;96464.22;5211193;28;20202;-78
2021/11/29 03:28:54;;;;;;;27.77;21.90;;;1.40;99.90;;;2.27;100.00;96471.91;5217018;28;20559;-77
2021/11/29 03:31:32;;;;;;;25.97;21.03;;;1.40;99.90;;;2.21;100.00;96472.38;5217612;28;20198;-78
2021/11/29 03:34:10;;;;;;;24.93;21.73;;;1.40;99.90;;;2.32;100.00;96468.91;5215857;28;20722;-77
2021/11/29 03:36:46;;;;;;;26.43;22.70;;;1.40;99.90;;;2.29;100.00;96477.88;5202621;28;20220;-77
2021/11/29 03:39:24;;;;;;;25.73;22.40;;;1.40;99.90;;;2.27;100.00;96469.38;5213255;28;20309;-77
2021/11/29 03:42:03;;;;;;;25.50;21.87;;;1.40;99.90;;;2.31;100.00;96468.78;5204287;28;20586;-78
2021/11/29 03:44:38;;;;;;;27.90;23.77;;;1.40;99.90;;;2.36;100.00;96475.00;5205313;28;20259;-78
2021/11/29 03:47:11;;;;;;;25.40;21.60;;;1.40;99.90;;;2.39;100.00;96476.06;5204823;28;20568;-77
2021/11/29 03:49:45;;;;;;;25.63;22.57;;;1.40;99.90;;;2.37;100.00;96486.84;5204786;28;20661;-76
2021/11/29 03:52:18;;;;;;;27.87;22.90;;;1.40;99.90;;;2.37;100.00;96479.28;5206985;28;20222;-78
2021/11/29 03:54:53;;;;;;;27.77;23.43;;;1.40;99.90;;;2.33;100.00;96482.38;5204522;28;20780;-78
2021/11/29 03:57:26;;;;;;;26.33;22.70;;;1.40;99.90;;;2.31;100.00;96482.25;5204177;28;20287;-78
2021/11/29 03:59:59;;;;;;;24.43;21.23;;;1.40;99.90;;;2.31;100.00;96481.38;5207278;28;20204;-78
2021/11/29 04:02:32;;;;;;;29.30;24.17;;;1.40;99.90;;;2.36;100.00;96492.66;5205607;28;20229;-78
2021/11/29 04:05:06;;;;;;;29.20;24.07;;;1.40;99.90;;;2.39;100.00;96487.81;5216669;28;20219;-78
2021/11/29 04:07:39;;;;;;;32.50;24.90;;;1.40;99.90;;;2.35;100.00;96485.88;5205460;28;20281;-77
2021/11/29 04:10:14;;;;;;;27.50;23.07;;;1.40;99.90;;;2.33;100.00;96487.41;5209664;28;20281;-77
2021/11/29 04:12:47;;;;;;;25.83;23.00;;;1.40;99.90;;;2.36;100.00;96493.53;5216024;28;20303;-77
2021/11/29 04:15:20;;;;;;;28.90;24.33;;;1.40;99.90;;;2.39;100.00;96500.41;5203891;28;20201;-77
2021/11/29 04:17:54;;;;;;;29.87;24.50;;;1.30;99.90;;;2.39;100.00;96498.78;5202507;28;20202;-78
2021/11/29 04:20:28;;;;;;;30.03;24.47;;;1.40;99.90;;;2.36;100.00;96502.75;5211500;28;20196;-78
2021/11/29 04:23:01;;;;;;;29.30;24.77;;;1.40;99.90;;;2.33;100.00;96507.59;5206142;28;20238;-78
2021/11/29 04:25:42;;;;;;;30.77;25.33;;;1.40;99.90;;;2.34;100.00;96511.84;5203761;28;20230;-78
2021/11/29 04:28:15;;;;;;;31.27;25.33;;;1.40;99.90;;;2.37;100.00;96519.59;5205263;28;20645;-77
2021/11/29 04:30:49;;;;;;;36.07;27.97;;;1.50;99.90;;;2.36;100.00;96518.75;5204890;28;20287;-78
2021/11/29 04:33:22;;;;;;;34.23;27.43;;;1.50;99.90;;;2.39;100.00;96528.16;5202939;28;20773;-78
2021/11/29 04:35:55;;;;;;;39.63;28.97;;;1.50;99.90;;;2.37;100.00;96519.59;5222763;28;20231;-77
2021/11/29 04:38:29;;;;;;;39.40;29.50;;;1.50;99.90;;;2.42;100.00;96520.78;5205981;28;20286;-78
2021/11/29 04:41:03;;;;;;;37.93;28.10;;;1.60;99.90;;;2.40;100.00;96524.84;5204945;28;20206;-78
2021/11/29 04:43:37;;;;;;;37.93;28.83;;;1.60;99.90;;;2.47;100.00;96532.06;5212196;28;20590;-78
2021/11/29 04:46:10;;;;;;;41.17;31.00;;;1.50;99.90;;;2.44;100.00;96526.81;5219291;28;20197;-78
2021/11/29 04:48:44;;;;;;;37.77;28.67;;;1.50;99.90;;;2.40;100.00;96537.47;5205854;28;20197;-77
2021/11/29 04:51:17;;;;;;;43.63;30.67;;;1.50;99.90;;;2.45;100.00;96537.00;5201975;28;22484;-78
2021/11/29 04:53:51;;;;;;;39.17;30.07;;;1.50;99.90;;;2.34;100.00;96549.66;5216567;28;20303;-77
2021/11/29 04:56:25;;;;;;;41.37;31.20;;;1.50;99.90;;;2.38;100.00;96549.09;5207725;28;20201;-77
2021/11/29 04:58:58;;;;;;;41.83;30.57;;;1.50;99.90;;;2.36;100.00;96555.69;5221361;28;20199;-77
2021/11/29 05:01:32;;;;;;;44.63;32.47;;;1.50;99.90;;;2.40;100.00;96552.59;5209920;28;20204;-77
2021/11/29 05:04:05;;;;;;;43.90;32.03;;;1.50;99.90;;;2.40;100.00;96561.00;5205460;28;20334;-77
2021/11/29 05:06:38;;;;;;;42.63;32.00;;;1.50;99.90;;;2.40;100.00;96555.09;5215685;28;20293;-77
2021/11/29 05:09:11;;;;;;;44.20;32.27;;;1.50;99.90;;;2.40;100.00;96550.06;5207254;28;20194;-77
2021/11/29 05:11:46;;;;;;;48.37;34.30;;;1.50;99.90;;;2.43;100.00;96560.34;5210396;28;20681;-78
2021/11/29 05:14:19;;;;;;;45.87;33.73;;;1.60;99.90;;;2.38;100.00;96566.75;5216638;28;20298;-78
2021/11/29 05:16:52;;;;;;;44.43;32.57;;;1.50;99.90;;;2.40;100.00;96570.22;5214327;28;20200;-78
2021/11/29 05:19:25;;;;;;;50.60;35.57;;;1.50;99.90;;;2.42;100.00;96578.78;5207724;28;20729;-79
2021/11/29 05:21:59;;;;;;;49.20;35.23;;;1.50;99.90;;;2.42;100.00;96567.03;5209868;28;20286;-78
2021/11/29 05:24:32;;;;;;;47.93;34.57;;;1.60;99.90;;;2.38;100.00;96575.19;5202931;28;20224;-78
2021/11/29 05:27:07;;;;;;;49.23;36.60;;;1.60;99.90;;;2.39;100.00;96583.63;5215692;28;20603;-78
2021/11/29 05:29:40;;;;;;;49.77;35.43;;;1.60;99.90;;;2.41;100.00;96585.47;5208301;28;20197;-78
2021/11/29 05:32:13;;;;;;;50.60;35.63;;;1.60;99.90;;;2.49;100.00;96591.03;5189032;28;20205;-78
2021/11/29 05:34:46;;;;;;;48.13;35.73;;;1.50;99.90;;;2.48;100.00;96590.13;5210159;28;20225;-78
2021/11/29 05:37:26;;;;;;;52.33;35.97;;;1.50;99.90;;;2.50;100.00;96595.31;5213660;28;20258;-79
2021/11/29 05:39:59;;;;;;;49.77;36.20;;;1.50;99.90;;;2.50;100.00;96596.97;5208557;28;20740;-78
2021/11/29 05:42:50;;;;;;;52.10;36.93;;;1.50;99.90;;;2.54;100.00;96594.72;5199931;28;20204;-78
2021/11/29 05:45:24;;;;;;;47.73;35.37;;;1.60;99.90;;;2.48;100.00;96599.34;5209800;28;20292;-78
2021/11/29 05:47:57;;;;;;;54.20;38.27;;;1.50;99.90;;;2.42;100.00;96609.91;5202769;28;20423;-78
2021/11/29 05:50:30;;;;;;;52.50;36.27;;;1.50;99.90;;;2.40;100.00;96611.44;5209573;28;20206;-78
2021/11/29 05:53:03;;;;;;;49.23;33.97;;;1.60;99.90;;;2.44;100.00;96615.06;5204599;28;20200;-78
2021/11/29 05:55:36;;;;;;;50.63;35.40;;;1.60;99.90;;;2.42;100.00;96619.13;5213838;28;20645;-79
2021/11/29 05:58:11;;;;;;;54.03;37.53;;;1.60;99.90;;;2.43;100.00;96626.81;5212913;28;20230;-79
2021/11/29 06:00:44;;;;;;;56.67;38.30;;;1.50;99.90;;;2.42;100.00;96629.22;5209888;28;20239;-78
2021/11/29 06:03:17;;;;;;;51.23;35.90;;;1.50;99.90;;;2.44;100.00;96632.72;5206110;28;20612;-79
2021/11/29 06:05:50;;;;;;;54.20;36.90;;;1.50;99.90;;;2.43;100.00;96631.84;5208329;28;20232;-80
2021/11/29 06:08:24;;;;;;;53.17;36.93;;;1.50;99.90;;;2.45;100.00;96629.41;5209944;28;20253;-79
2021/11/29 06:10:58;;;;;;;57.23;36.97;;;1.50;99.90;;;2.45;100.00;96640.38;5200723;28;20274;-79
2021/11/29 06:13:32;;;;;;;56.10;37.70;;;1.50;99.90;;;2.48;100.00;96645.63;5202919;28;20238;-78
2021/11/29 06:16:06;;;;;;;51.57;35.80;;;1.50;99.90;;;2.55;100.00;96646.03;5217581;28;20198;-79
2021/11/29 06:18:39;;;;;;;48.63;34.63;;;1.50;99.90;;;2.51;100.00;96650.00;5204372;28;20213;-78
2021/11/29 06:21:13;;;;;;;50.47;35.23;;;1.50;99.90;;;2.49;100.00;96651.56;5212344;28;20243;-79
2021/11/29 06:23:46;;;;;;;51.63;37.00;;;1.50;99.90;;;2.48;100.00;96659.88;5209072;28;20298;-79
2021/11/29 06:26:20;;;;;;;52.53;35.17;;;1.60;99.90;;;2.38;100.00;96662.56;5210423;28;20205;-80
2021/11/29 06:28:54;;;;;;;49.63;35.87;;;1.50;99.90;;;2.41;100.00;96665.28;5214164;28;20288;-78
2021/11/29 06:31:27;;;;;;;49.93;34.43;;;1.50;99.90;;;2.37;100.00;96673.41;5202991;28;20287;-78
2021/11/29 06:34:01;;;;;;;47.03;34.10;;;1.40;99.90;;;2.31;100.00;96680.53;5211351;28;20305;-79
2021/11/29 06:36:34;;;;;;;46.50;33.80;;;1.40;99.90;;;2.33;100.00;96679.88;5218728;28;20288;-78
2021/11/29 06:39:07;;;;;;;49.67;33.07;;;1.40;99.90;;;2.31;100.00;96683.06;5210686;28;20291;-78
2021/11/29 06:41:40;;;;;;;51.20;33.57;;;1.40;99.90;;;2.21;100.00;96684.94;5207769;28;20690;-78
2021/11/29 06:44:15;;;;;;;50.47;35.40;;;1.40;99.90;;;2.16;100.00;96691.31;5202980;28;20232;-78
2021/11/29 06:46:48;;;;;;;50.13;34.50;;;1.40;99.90;;;2.26;100.00;96695.34;5211431;28;20208;-78
2021/11/29 06:49:22;;;;;;;48.43;33.03;;;1.40;99.90;;;2.33;100.00;96706.75;5210075;28;20309;-82
2021/11/29 06:51:55;;;;;;;49.17;33.00;;;1.40;99.90;;;2.36;100.00;96709.47;5221386;28;20227;-82
2021/11/29 06:54:28;;;;;;;47.47;32.30;;;1.40;99.90;;;2.34;100.00;96716.03;5200844;28;20282;-81
2021/11/29 06:57:03;;;;;;;45.83;31.93;;;1.40;99.90;;;2.29;100.00;96712.31;5208634;28;20656;-79
2021/11/29 06:59:37;;;;;;;41.40;29.47;;;1.50;99.90;;;2.32;100.00;96721.00;5213205;28;20856;-82
2021/11/29 07:02:11;;;;;;;43.60;30.90;;;1.40;99.90;;;2.32;100.00;96717.56;5211822;28;20728;-83
2021/11/29 07:04:44;;;;;;;41.93;30.97;;;1.50;99.90;;;2.25;100.00;96722.19;5212233;28;20227;-82
2021/11/29 07:07:18;;;;;;;42.40;30.30;;;1.40;99.90;;;2.25;100.00;96727.22;5217955;28;20231;-82
2021/11/29 07:09:51;;;;;;;44.17;30.57;;;1.50;99.90;;;2.32;100.00;96728.56;5210320;28;20288;-81
2021/11/29 07:12:24;;;;;;;41.73;30.13;;;1.50;99.90;;;2.28;100.00;96745.88;5212495;28;20230;-82
2021/11/29 07:14:59;;;;;;;44.90;31.27;;;1.50;99.90;;;2.28;100.00;96739.19;5210137;28;20226;-84
2021/11/29 07:17:32;;;;;;;43.33;30.73;;;1.50;99.90;;;2.24;100.00;96750.69;5211643;28;20285;-82
2021/11/29 07:20:07;;;;;;;42.23;29.30;;;1.50;99.90;;;2.29;100.00;96757.69;5210331;28;20234;-82
2021/11/29 07:22:41;;;;;;;38.43;28.00;;;1.50;99.90;;;2.32;100.00;96757.91;5210622;28;20209;-83
2021/11/29 07:25:15;;;;;;;38.73;28.67;;;1.50;99.90;;;2.36;100.00;96762.41;5219001;28;20301;-82
2021/11/29 07:27:48;;;;;;;41.17;29.07;;;1.50;99.90;;;2.27;100.00;96774.38;5202641;28;20240;-82
2021/11/29 07:30:26;;;;;;;39.53;29.07;;;1.50;99.90;;;2.35;100.00;96770.75;5209151;28;20206;-83
2021/11/29 07:32:59;;;;;;;36.43;26.73;;;1.50;99.90;;;2.37;100.00;96779.28;5202336;28;20285;-81
2021/11/29 07:35:34;;;;;;;36.93;27.37;;;1.50;99.90;;;2.42;100.00;96785.53;5208098;28;20245;-84
2021/11/29 07:38:07;;;;;;;36.47;27.37;;;1.50;99.90;;;2.43;100.00;96789.78;5203259;28;20271;-83
2021/11/29 07:40:41;;;;;;;40.07;29.50;;;1.50;99.90;;;2.45;100.00;96795.84;5209571;28;20281;-83
2021/11/29 07:43:14;;;;;;;41.33;28.00;;;1.60;99.90;;;2.38;100.00;96798.72;5205192;28;20309;-84
2021/11/29 07:45:49;;;;;;;38.80;28.13;;;1.50;99.90;;;2.42;100.00;96811.63;5211850;28;20305;-83
2021/11/29 07:48:22;;;;;;;41.77;29.07;;;1.50;99.90;;;2.41;100.00;96811.53;5210108;28;20569;-83
2021/11/29 07:50:55;;;;;;;38.93;28.43;;;1.50;99.90;;;2.35;100.00;96811.97;5215366;28;20226;-86
2021/11/29 07:53:29;;;;;;;39.93;28.27;;;1.50;99.90;;;2.38;100.00;96823.91;5225208;28;20224;-84
2021/11/29 07:56:02;;;;;;;41.87;30.27;;;1.60;99.90;;;2.36;100.00;96828.84;5207978;28;20292;-82
2021/11/29 07:58:36;;;;;;;37.57;28.67;;;1.50;99.90;;;2.39;100.00;96830.69;5208390;28;20203;-82
2021/11/29 08:01:11;;;;;;;38.50;28.43;;;1.60;99.90;;;2.43;100.00;96837.72;5217701;28;20730;-84
2021/11/29 08:03:45;;;;;;;42.03;28.53;;;1.60;99.90;;;2.38;100.00;96839.06;5206781;28;20313;-84
2021/11/29 08:06:18;;;;;;;36.70;27.40;;;1.50;99.90;;;2.44;100.00;96839.47;5206535;28;20220;-84
2021/11/29 08:08:51;;;;;;;39.47;27.57;;;1.50;99.90;;;2.44;100.00;96852.09;5215641;28;20241;-84
2021/11/29 08:11:24;;;;;;;35.47;26.77;;;1.50;99.90;;;2.48;100.00;96847.34;5220903;28;20249;-83
2021/11/29 08:13:58;;;;;;;37.60;26.87;;;1.50;99.90;;;2.46;100.00;96856.47;5206795;28;20259;-84
2021/11/29 08:16:32;;;;;;;37.37;27.63;;;1.50;99.90;;;2.51;100.00;96864.34;5212336;28;20681;-83
2021/11/29 08:19:05;;;;;;;35.50;25.43;;;1.60;99.90;;;2.48;100.00;96862.47;5217325;28;20249;-84
2021/11/29 08:21:49;;;;;;;34.90;24.47;;;1.60;99.90;;;2.52;100.00;96868.66;5213110;28;20275;-83
2021/11/29 08:24:22;;;;;;;35.73;25.47;;;1.60;99.90;;;2.54;100.00;96877.19;5213118;28;20758;-83
2021/11/29 08:26:55;;;;;;;33.23;23.77;;;1.60;99.90;;;2.56;100.00;96874.78;5216556;28;20217;-83
2021/11/29 08:29:28;;;;;;;34.33;25.03;;;1.60;99.90;;;2.52;100.00;96883.78;5201243;28;20205;-84
2021/11/29 08:32:03;;;;;;;34.63;25.77;;;1.60;99.90;;;2.55;100.00;96878.03;5207325;28;20265;-84
2021/11/29 08:34:38;;;;;;;33.73;24.67;;;1.60;99.90;;;2.65;100.00;96885.53;5207098;28;20328;-83
2021/11/29 08:37:13;;;;;;;34.13;24.40;;;1.70;99.90;;;2.62;100.00;96887.81;5208317;28;20306;-84
2021/11/29 08:39:46;;;;;;;31.57;22.27;;;1.70;99.90;;;2.68;100.00;96891.66;5212232;28;20248;-84
2021/11/29 08:42:19;;;;;;;33.27;23.63;;;1.70;99.90;;;2.67;99.87;96902.53;5213256;28;20229;-83
2021/11/29 08:44:52;;;;;;;30.07;22.73;;;1.60;99.90;;;2.71;99.20;96907.00;5209896;28;20314;-84
2021/11/29 08:47:27;;;;;;;31.17;23.53;;;1.80;99.90;;;2.68;99.94;96906.78;5208924;28;20201;-83
2021/11/29 08:50:00;;;;;;;31.03;21.93;;;1.80;99.90;;;2.68;100.00;96906.78;5213383;28;20294;-84
2021/11/29 08:52:53;;;;;;;28.77;22.13;;;1.70;99.90;;;2.66;99.63;96917.53;5221231;28;20661;-85
2021/11/29 08:55:27;;;;;;;27.37;21.43;;;1.70;99.90;;;2.71;99.99;96922.13;5212254;28;20706;-86
2021/11/29 08:58:01;;;;;;;28.23;20.03;;;1.70;99.90;;;2.71;100.00;96926.31;5212941;28;20309;-84
2021/11/29 09:00:36;;;;;;;30.97;23.23;;;1.70;99.90;;;2.82;98.76;96932.13;5205867;28;20196;-82
2021/11/29 09:03:11;;;;;;;28.90;21.30;;;1.80;99.90;;;2.80;99.14;96936.19;5209098;28;20225;-84
2021/11/29 09:05:48;;;;;;;25.93;19.77;;;1.80;99.90;;;2.69;100.00;96938.84;5207448;28;20444;-84
2021/11/29 09:08:22;;;;;;;27.30;20.03;;;1.70;99.90;;;2.74;99.07;96943.31;5207305;28;20284;-84
2021/11/29 09:10:55;;;;;;;23.20;18.50;;;1.70;99.90;;;2.84;98.58;96948.25;5211629;28;20195;-84
2021/11/29 09:13:45;;;;;;;24.27;18.73;;;1.80;99.90;;;2.83;98.00;96951.53;5202882;28;20227;-85
2021/11/29 09:16:19;;;;;;;25.50;20.10;;;1.80;99.90;;;2.85;98.78;96962.63;5217263;28;20209;-82
2021/11/29 09:18:54;;;;;;;23.27;18.87;;;1.80;99.90;;;2.89;98.50;96957.03;5226632;28;20197;-85
2021/11/29 09:21:27;;;;;;;23.37;18.73;;;1.80;99.90;;;2.93;97.85;96959.00;5215329;28;20232;-83
2021/11/29 09:24:06;;;;;;;21.93;17.00;;;1.90;99.90;;;2.92;97.93;96972.41;5216793;28;20217;-83
2021/11/29 09:26:39;;;;;;;24.13;18.30;;;1.90;99.90;;;2.92;98.65;96967.38;5197466;28;20228;-84
2021/11/29 09:29:15;;;;;;;24.17;18.17;;;1.90;99.90;;;2.98;97.48;96972.84;5222886;28;20227;-83
2021/11/29 09:31:48;;;;;;;24.07;17.83;;;1.90;99.90;;;3.01;97.61;96978.09;5207944;28;20201;-84
2021/11/29 09:34:23;;;;;;;20.43;16.50;;;1.90;99.90;;;3.05;97.86;96985.13;5207682;28;20316;-83
2021/11/29 09:36:57;;;;;;;22.90;17.57;;;2.00;99.90;;;3.16;96.76;96984.22;5209915;28;20220;-84
2021/11/29 09:39:33;;;;;;;20.10;16.27;;;2.00;99.90;;;3.19;97.64;96982.69;5204004;28;20200;-83
2021/11/29 09:42:06;;;;;;;20.13;16.77;;;2.00;99.90;;;3.26;97.24;96984.88;5210990;28;20673;-83
2021/11/29 09:44:39;;;;;;;19.53;15.83;;;2.10;99.90;;;3.47;94.15;96993.09;5208524;28;20309;-83
2021/11/29 09:47:13;;;;;;;19.23;15.40;;;2.20;99.90;;;3.42;94.19;96989.38;5212988;28;20246;-84
2021/11/29 09:49:50;;;;;;;17.63;15.70;;;2.10;99.90;;;3.43;94.76;96996.16;5232794;28;20236;-83
2021/11/29 09:52:23;;;;;;;20.47;16.10;;;2.20;99.90;;;3.42;95.16;96996.94;5217919;28;20260;-82
2021/11/29 09:54:57;;;;;;;19.13;16.27;;;2.20;99.90;;;3.41;94.98;96995.22;5204521;28;20221;-84
2021/11/29 09:57:30;;;;;;;21.53;17.47;;;2.20;99.90;;;3.35;96.00;97001.56;5211863;28;20205;-84
2021/11/29 10:00:04;;;;;;;24.93;17.73;;;2.20;99.90;;;3.37;96.43;97004.19;5205925;28;20194;-83
2021/11/29 10:02:38;;;;;;;20.57;16.43;;;2.20;99.90;;;3.55;93.19;96995.41;5208971;28;20209;-83
2021/11/29 10:05:15;;;;;;;19.73;15.00;;;2.10;99.90;;;3.36;94.86;96992.34;5219437;28;20313;-82
2021/11/29 10:07:49;;;;;;;18.83;15.63;;;2.10;99.90;;;3.33;95.03;97002.22;5211531;28;20196;-84
2021/11/29 10:10:28;;;;;;;22.70;15.53;;;2.10;99.90;;;3.26;94.25;96997.50;5209561;28;20253;-83
2021/11/29 10:13:06;;;;;;;15.90;14.20;;;2.00;99.90;;;3.30;94.20;97002.88;5220757;28;20232;-84
2021/11/29 10:15:41;;;;;;;18.80;14.70;;;2.00;99.90;;;3.22;94.78;96993.91;5211507;28;20229;-84
2021/11/29 10:18:18;;;;;;;19.43;16.03;;;2.00;99.90;;;3.19;95.00;97002.91;5209439;28;20201;-84
2021/11/29 10:20:58;;;;;;;20.80;16.07;;;2.00;99.90;;;3.08;96.12;97008.06;5204487;28;20205;-84
2021/11/29 10:23:35;;;;;;;19.80;15.47;;;2.00;99.90;;;3.09;95.96;97007.31;5210159;28;20303;-82
2021/11/29 10:26:11;;;;;;;18.77;15.57;;;2.00;99.90;;;3.20;96.14;97002.13;5209686;28;20225;-83
2021/11/29 10:28:47;;;;;;;17.40;15.60;;;2.10;99.90;;;3.24;97.73;97005.00;5209300;28;20211;-83
2021/11/29 10:31:32;;;;;;;17.47;14.60;;;2.20;99.90;;;3.33;95.85;97007.28;5217699;28;20208;-84
2021/11/29 10:34:09;;;;;;;19.20;14.67;;;2.20;99.90;;;3.41;95.49;97011.22;5225162;28;20231;-83
2021/11/29 10:36:46;;;;;;;17.87;14.73;;;2.30;99.90;;;3.49;95.27;97010.13;5232216;28;20287;-84
2021/11/29 10:39:24;;;;;;;18.27;14.53;;;2.40;99.90;;;3.58;94.87;97007.38;5209495;28;20506;-84
2021/11/29 10:42:00;;;;;;;16.20;13.73;;;2.40;99.90;;;3.72;93.07;97008.28;5212195;28;20225;-84
2021/11/29 10:44:37;;;;;;;15.17;12.70;;;2.40;99.90;;;3.59;91.74;97002.41;5210421;28;20301;-83